Time;durP1;ratioP1;P1;durP2;ratioP2;P2;SDS_P1;SDS_P2;PMS_P1;PMS_P2;Temp;Humidity;BMP_temperature;BMP_pressure;BME280_temperature;BME280_humidity;BME280_pressure;Samples;Min_cycle;Max_cycle;Signal;HPM_P1;HPM_P2
2022/07/21 00:00:38;;;;;;;17.92;16.05;;;;;;;30.06;32.65;100677.06;5007829;28;20022;-68
2022/07/21 00:03:03;;;;;;;20.27;16.55;;;;;;;30.06;32.74;100670.88;5007951;28;20036;-68
2022/07/21 00:05:29;;;;;;;20.50;17.33;;;;;;;30.07;32.40;100677.88;5008173;28;20529;-67
2022/07/21 00:07:55;;;;;;;20.80;18.65;;;;;;;30.06;32.48;100676.25;5008124;28;20041;-69
2022/07/21 00:10:24;;;;;;;22.15;20.00;;;;;;;30.07;32.67;100677.88;5007971;28;20133;-68
2022/07/21 00:12:50;;;;;;;22.80;20.40;;;;;;;30.06;32.43;100687.81;5008169;28;20631;-69
2022/07/21 00:15:17;;;;;;;22.58;20.45;;;;;;;30.06;32.73;100685.13;5007942;28;20030;-69
2022/07/21 00:17:43;;;;;;;22.30;19.80;;;;;;;30.07;32.67;100684.06;5007883;28;20032;-69
2022/07/21 00:20:10;;;;;;;18.13;15.90;;;;;;;30.07;32.47;100681.38;5007743;28;20033;-68
2022/07/21 00:22:35;;;;;;;18.08;13.98;;;;;;;30.06;32.38;100682.44;5008008;28;20034;-68
2022/07/21 00:25:01;;;;;;;15.93;12.43;;;;;;;30.06;32.03;100681.63;5008161;28;20041;-68
2022/07/21 00:27:26;;;;;;;11.77;10.38;;;;;;;30.05;32.09;100686.19;5007752;28;20084;-68
2022/07/21 00:29:52;;;;;;;9.70;8.73;;;;;;;30.04;32.04;100682.72;5007825;28;20026;-67
2022/07/21 00:32:17;;;;;;;9.18;8.13;;;;;;;30.06;32.17;100682.44;5008229;28;20034;-68
2022/07/21 00:34:44;;;;;;;8.18;7.18;;;;;;;30.06;32.09;100687.81;5007723;28;20025;-68
2022/07/21 00:37:10;;;;;;;9.23;6.47;;;;;;;30.06;31.68;100685.13;5007532;28;20124;-68
2022/07/21 00:39:36;;;;;;;11.05;6.57;;;;;;;30.05;31.82;100680.84;5007633;28;20022;-68
2022/07/21 00:42:01;;;;;;;5.85;5.25;;;;;;;30.04;32.23;100680.03;5011322;28;20049;-69
2022/07/21 00:44:27;;;;;;;5.65;5.15;;;;;;;30.06;32.08;100679.75;5006213;28;20142;-69
2022/07/21 00:46:53;;;;;;;6.03;4.00;;;;;;;30.06;32.22;100671.69;4993664;28;20026;-67
2022/07/21 00:49:20;;;;;;;4.70;4.30;;;;;;;30.04;31.86;100663.91;4988455;28;20065;-68
2022/07/21 00:51:46;;;;;;;3.67;3.38;;;;;;;30.04;32.00;100665.78;5008057;28;20403;-69
2022/07/21 00:54:13;;;;;;;4.45;3.80;;;;;;;30.03;32.08;100664.97;4989322;28;20473;-70
2022/07/21 00:56:39;;;;;;;4.72;3.78;;;;;;;30.02;31.94;100659.88;5004523;28;20155;-67
2022/07/21 00:59:05;;;;;;;5.07;4.03;;;;;;;30.02;31.59;100666.06;5002384;28;20034;-68
2022/07/21 01:01:31;;;;;;;4.15;3.25;;;;;;;30.02;32.11;100657.19;4999993;28;20030;-69
2022/07/21 01:03:56;;;;;;;5.55;3.72;;;;;;;30.01;31.82;100659.06;4991975;28;20033;-69
2022/07/21 01:06:25;;;;;;;7.93;4.32;;;;;;;30.02;31.88;100655.31;5007752;28;20048;-70
2022/07/21 01:08:51;;;;;;;4.72;3.47;;;;;;;30.01;31.74;100648.31;5009951;28;20449;-68
2022/07/21 01:11:17;;;;;;;5.95;3.22;;;;;;;30.03;32.00;100662.28;5011004;28;20030;-69
2022/07/21 01:13:43;;;;;;;3.17;2.92;;;;;;;30.02;32.33;100658.00;5007543;28;20490;-69
2022/07/21 01:16:09;;;;;;;3.38;3.08;;;;;;;30.01;31.97;100659.06;5003654;28;20034;-68
2022/07/21 01:18:36;;;;;;;6.07;2.92;;;;;;;30.01;32.10;100653.69;5003479;28;20037;-69
2022/07/21 01:21:07;;;;;;;4.35;3.15;;;;;;;30.02;31.84;100655.31;5010197;28;20065;-67
2022/07/21 01:23:33;;;;;;;4.10;3.28;;;;;;;30.00;31.82;100652.09;5008897;28;20041;-69
2022/07/21 01:25:58;;;;;;;6.10;3.60;;;;;;;30.02;31.81;100651.81;5011176;28;20030;-68
2022/07/21 01:28:24;;;;;;;4.20;2.90;;;;;;;30.01;31.89;100650.19;5006532;28;20049;-68
2022/07/21 01:30:50;;;;;;;3.83;3.35;;;;;;;30.01;31.95;100648.31;5008296;28;20711;-69
2022/07/21 01:33:16;;;;;;;3.38;3.03;;;;;;;30.00;32.29;100649.41;4991342;28;20113;-69
2022/07/21 01:35:41;;;;;;;4.13;3.13;;;;;;;30.01;32.19;100644.84;5004133;28;20041;-69
2022/07/21 01:41:28;;;;;;;4.18;3.80;;;;;;;30.01;32.36;100642.16;5010827;28;20022;-68
2022/07/21 01:43:42;;;;;;;6.00;3.72;;;;;;;29.97;32.03;100647.22;5009557;28;20180;-68
2022/07/21 01:46:12;;;;;;;4.18;3.42;;;;;;;29.97;31.90;100651.78;5008102;28;20037;-69
2022/07/21 01:48:42;;;;;;;4.20;3.22;;;;;;;29.96;32.19;100648.28;5009562;28;20545;-68
2022/07/21 01:51:07;;;;;;;3.85;3.50;;;;;;;29.96;32.04;100650.16;5009090;28;20107;-67
2022/07/21 01:53:33;;;;;;;4.78;2.75;;;;;;;29.95;32.31;100643.19;5010490;28;20760;-69
2022/07/21 01:55:58;;;;;;;5.80;3.75;;;;;;;29.94;32.31;100639.69;5007040;28;20048;-68
2022/07/21 01:58:24;;;;;;;5.57;4.18;;;;;;;29.94;32.40;100646.94;5009190;28;20057;-68
2022/07/21 02:00:49;;;;;;;5.47;4.90;;;;;;;29.92;31.92;100639.16;5007814;28;20382;-68
2022/07/21 02:03:14;;;;;;;9.07;4.80;;;;;;;29.94;32.43;100642.38;4994390;28;20104;-68
2022/07/21 02:05:40;;;;;;;6.15;5.53;;;;;;;29.93;32.46;100646.13;5009556;28;20033;-68
2022/07/21 02:08:05;;;;;;;7.00;5.10;;;;;;;29.94;32.46;100646.94;5009202;28;20033;-69
2022/07/21 02:10:32;;;;;;;5.53;5.03;;;;;;;29.94;32.27;100645.06;5009133;28;20100;-68
2022/07/21 02:12:57;;;;;;;6.20;4.72;;;;;;;29.94;32.33;100639.69;5006343;28;20152;-68
2022/07/21 02:15:22;;;;;;;5.35;4.18;;;;;;;29.95;32.46;100640.50;5018506;28;20120;-69
2022/07/21 02:17:48;;;;;;;5.40;4.45;;;;;;;29.95;32.05;100640.50;4997686;28;20030;-68
2022/07/21 02:20:13;;;;;;;6.07;4.70;;;;;;;29.95;32.21;100638.63;4990221;28;20042;-68
2022/07/21 02:22:39;;;;;;;4.57;3.72;;;;;;;29.95;32.49;100632.44;5003971;28;20117;-69
2022/07/21 02:25:04;;;;;;;4.53;4.13;;;;;;;29.95;32.54;100635.94;5008526;28;20033;-69
2022/07/21 02:27:30;;;;;;;5.20;4.22;;;;;;;29.94;32.57;100637.00;5006608;28;20113;-69
2022/07/21 02:29:55;;;;;;;5.53;4.25;;;;;;;29.94;32.83;100628.94;5010106;28;20025;-68
2022/07/21 02:32:21;;;;;;;5.60;4.50;;;;;;;29.94;32.36;100631.63;4989703;28;20036;-69
2022/07/21 02:34:46;;;;;;;4.20;3.75;;;;;;;29.93;32.35;100627.34;5007084;28;20118;-69
2022/07/21 02:37:11;;;;;;;6.07;3.50;;;;;;;29.93;32.68;100630.03;5008941;28;20528;-69
2022/07/21 02:39:37;;;;;;;4.07;3.70;;;;;;;29.92;32.18;100633.78;5008388;28;20459;-69
2022/07/21 02:42:02;;;;;;;3.50;3.20;;;;;;;29.91;32.33;100642.91;5005000;28;20172;-69
2022/07/21 02:44:30;;;;;;;5.57;3.95;;;;;;;29.90;32.73;100635.94;5008020;28;20105;-68
2022/07/21 02:46:55;;;;;;;5.20;3.58;;;;;;;29.89;32.56;100637.00;5007099;28;20052;-69
2022/07/21 02:49:20;;;;;;;5.13;3.42;;;;;;;29.88;32.65;100638.06;5009227;28;20030;-69
2022/07/21 02:51:46;;;;;;;5.63;3.50;;;;;;;29.87;32.86;100636.47;5008453;28;20026;-68
2022/07/21 02:54:11;;;;;;;5.72;4.47;;;;;;;29.86;32.64;100637.53;5008319;28;20437;-69
2022/07/21 02:56:37;;;;;;;9.50;4.88;;;;;;;29.86;32.46;100632.16;5007965;28;20040;-70
2022/07/21 02:59:02;;;;;;;5.15;4.70;;;;;;;29.86;32.80;100634.03;5007966;28;20072;-70
2022/07/21 03:01:28;;;;;;;6.13;5.53;;;;;;;29.85;32.81;100627.06;5008560;28;20080;-70
2022/07/21 03:03:53;;;;;;;7.70;4.55;;;;;;;29.84;32.34;100625.44;4994353;28;20033;-70
2022/07/21 03:06:18;;;;;;;6.13;4.70;;;;;;;29.84;32.83;100626.25;5277636;23;20414;-69
2022/07/21 03:08:44;;;;;;;4.35;3.92;;;;;;;29.84;32.57;100626.25;5007843;28;20049;-69
2022/07/21 03:11:09;;;;;;;7.40;4.70;;;;;;;29.84;32.44;100628.94;5009105;28;20101;-69
2022/07/21 03:13:35;;;;;;;5.05;4.15;;;;;;;29.84;32.55;100631.63;5008902;28;20069;-69
2022/07/21 03:16:00;;;;;;;4.95;4.18;;;;;;;29.85;32.90;100627.06;5008831;28;20084;-69
2022/07/21 03:18:25;;;;;;;8.40;4.05;;;;;;;29.85;32.41;100627.88;5008876;28;20041;-69
2022/07/21 03:20:51;;;;;;;4.05;3.65;;;;;;;29.86;32.69;100620.63;5008712;28;20022;-70
2022/07/21 03:23:16;;;;;;;5.68;4.28;;;;;;;29.86;32.38;100632.16;5008344;28;20121;-69
2022/07/21 03:25:42;;;;;;;7.50;4.80;;;;;;;29.86;32.58;100637.53;5008210;28;20022;-69
2022/07/21 03:28:07;;;;;;;4.47;4.07;;;;;;;29.86;33.01;100631.34;5008779;28;20041;-69
2022/07/21 03:30:34;;;;;;;4.88;4.38;;;;;;;29.86;32.90;100632.16;5008760;28;20029;-69
2022/07/21 03:32:59;;;;;;;5.07;4.13;;;;;;;29.85;32.63;100633.25;5008796;28;20622;-69
2022/07/21 03:35:25;;;;;;;6.72;5.03;;;;;;;29.85;32.87;100622.50;5008495;28;20024;-69
2022/07/21 03:37:57;;;;;;;4.90;3.97;;;;;;;29.84;32.55;100631.63;5008382;28;20083;-67
2022/07/21 03:40:24;;;;;;;5.63;3.83;;;;;;;29.83;33.04;100629.22;5008536;28;20055;-68
2022/07/21 03:42:52;;;;;;;5.68;4.53;;;;;;;29.81;32.82;100634.84;5008550;28;20033;-70
2022/07/21 03:45:18;;;;;;;5.25;4.03;;;;;;;29.80;32.97;100627.88;5008435;28;20064;-69
2022/07/21 03:47:44;;;;;;;4.40;3.70;;;;;;;29.79;33.12;100628.94;5008348;28;20482;-69
2022/07/21 03:50:11;;;;;;;4.72;4.25;;;;;;;29.79;33.16;100628.13;5008610;28;20068;-69
2022/07/21 03:52:37;;;;;;;5.97;4.65;;;;;;;29.77;33.12;100625.75;5008410;28;20497;-68
2022/07/21 03:55:09;;;;;;;4.38;3.97;;;;;;;29.75;32.79;100629.75;5008795;28;20034;-66
2022/07/21 03:57:39;;;;;;;4.70;3.97;;;;;;;29.74;32.85;100628.16;5008648;28;20410;-69
2022/07/21 04:00:12;;;;;;;6.00;4.00;;;;;;;29.71;33.26;100630.31;5008417;28;20034;-68
2022/07/21 04:02:38;;;;;;;4.40;4.00;;;;;;;29.70;32.79;100631.38;5008204;28;20040;-69
2022/07/21 04:05:04;;;;;;;5.13;3.97;;;;;;;29.68;32.75;100628.16;5008360;28;20030;-69
2022/07/21 04:07:29;;;;;;;5.90;4.20;;;;;;;29.69;32.90;100632.44;5008156;28;20497;-68
2022/07/21 04:09:55;;;;;;;8.55;3.67;;;;;;;29.70;33.43;100630.56;5008295;28;20022;-68
2022/07/21 04:12:25;;;;;;;4.97;4.47;;;;;;;29.71;33.22;100626.81;5008361;28;20032;-68
2022/07/21 04:14:50;;;;;;;5.28;4.05;;;;;;;29.73;32.92;100631.91;5008330;28;20029;-70
2022/07/21 04:17:16;;;;;;;5.75;4.45;;;;;;;29.73;33.20;100632.72;5007960;28;20029;-68
2022/07/21 04:19:41;;;;;;;7.18;4.05;;;;;;;29.73;32.85;100637.28;5008237;28;20486;-69
2022/07/21 04:22:06;;;;;;;5.65;4.10;;;;;;;29.74;33.00;100644.25;5007995;28;20515;-69
2022/07/21 04:24:32;;;;;;;5.93;4.20;;;;;;;29.74;33.11;100642.38;5008090;28;20084;-67
2022/07/21 04:26:57;;;;;;;6.93;4.28;;;;;;;29.75;33.05;100643.19;5008274;28;20156;-69
2022/07/21 04:29:23;;;;;;;9.15;4.97;;;;;;;29.75;33.40;100644.00;5008292;28;20076;-69
2022/07/21 04:31:48;;;;;;;6.10;4.10;;;;;;;29.75;33.47;100646.69;5007841;28;20239;-68
2022/07/21 04:34:14;;;;;;;5.13;4.18;;;;;;;29.75;33.21;100646.69;5007972;28;20030;-69
2022/07/21 04:36:39;;;;;;;6.03;4.50;;;;;;;29.74;33.47;100652.31;5010835;28;20124;-68
2022/07/21 04:39:04;;;;;;;4.60;4.20;;;;;;;29.73;33.64;100651.50;5011689;28;20498;-70
2022/07/21 04:41:30;;;;;;;5.35;4.50;;;;;;;29.72;33.19;100647.22;5011549;28;20022;-70
2022/07/21 04:43:55;;;;;;;5.35;4.60;;;;;;;29.72;33.65;100647.22;5011701;28;20037;-70
2022/07/21 04:46:20;;;;;;;4.95;4.53;;;;;;;29.71;33.23;100645.59;5011420;28;20032;-69
2022/07/21 04:48:46;;;;;;;5.95;4.63;;;;;;;29.70;33.39;100652.84;5011663;28;20048;-69
2022/07/21 04:51:11;;;;;;;5.47;4.97;;;;;;;29.70;33.69;100652.84;5011383;28;20057;-68
2022/07/21 04:53:37;;;;;;;4.93;4.20;;;;;;;29.70;33.79;100652.03;5011601;28;20079;-68
2022/07/21 04:56:02;;;;;;;6.10;4.47;;;;;;;29.70;33.73;100652.03;5011253;28;20522;-69
2022/07/21 04:58:28;;;;;;;5.55;4.45;;;;;;;29.70;33.39;100657.41;5011463;28;20030;-70
2022/07/21 05:00:53;;;;;;;5.35;4.82;;;;;;;29.69;33.56;100661.16;5006778;28;20041;-69
2022/07/21 05:03:18;;;;;;;5.40;4.72;;;;;;;29.69;33.75;100666.53;5009057;28;20072;-69
2022/07/21 05:05:44;;;;;;;5.57;5.05;;;;;;;29.69;33.72;100661.97;5009561;28;20193;-69
2022/07/21 05:08:09;;;;;;;4.90;4.40;;;;;;;29.70;33.17;100662.78;5010546;28;20052;-68
2022/07/21 05:10:35;;;;;;;7.95;5.05;;;;;;;29.70;33.86;100662.78;5011038;28;20583;-70
2022/07/21 05:13:00;;;;;;;5.03;4.63;;;;;;;29.71;33.22;100669.78;5009982;28;20072;-68
2022/07/21 05:15:26;;;;;;;6.07;4.30;;;;;;;29.72;33.60;100666.00;5009701;28;20033;-69
2022/07/21 05:17:51;;;;;;;5.57;5.07;;;;;;;29.74;33.75;100671.13;5008548;28;20030;-67
2022/07/21 05:20:16;;;;;;;4.60;4.20;;;;;;;29.74;33.81;100677.28;5009503;28;20038;-68
2022/07/21 05:22:42;;;;;;;5.07;4.22;;;;;;;29.76;33.43;100682.41;5010459;28;20022;-69
2022/07/21 05:25:08;;;;;;;6.07;4.68;;;;;;;29.77;33.58;100674.06;5011043;28;20049;-68
2022/07/21 05:27:33;;;;;;;5.47;4.93;;;;;;;29.76;33.86;100674.34;5008512;28;20091;-69
2022/07/21 05:29:58;;;;;;;5.45;4.95;;;;;;;29.77;33.77;100684.81;5009582;28;20069;-69
2022/07/21 05:32:24;;;;;;;5.32;4.90;;;;;;;29.77;33.97;100684.00;5010251;28;20038;-70
2022/07/21 05:34:49;;;;;;;5.80;5.25;;;;;;;29.77;33.71;100687.50;5009590;28;20033;-69
2022/07/21 05:37:15;;;;;;;5.60;4.93;;;;;;;29.78;33.97;100696.34;5010815;28;20510;-69
2022/07/21 05:39:40;;;;;;;8.55;5.28;;;;;;;29.77;33.73;100692.88;5009426;28;20471;-67
2022/07/21 05:42:06;;;;;;;5.78;5.28;;;;;;;29.79;34.17;100692.56;5005784;28;20152;-70
2022/07/21 05:44:31;;;;;;;5.88;5.10;;;;;;;29.77;33.79;100695.56;5010584;28;20549;-68
2022/07/21 05:46:57;;;;;;;7.90;5.18;;;;;;;29.77;34.25;100705.50;5004881;28;20065;-68
2022/07/21 05:49:23;;;;;;;8.05;4.93;;;;;;;29.77;33.89;100692.88;5009795;28;20096;-68
2022/07/21 05:51:48;;;;;;;9.27;4.72;;;;;;;29.77;33.98;100700.94;5009570;28;20036;-70
2022/07/21 05:54:14;;;;;;;6.50;4.93;;;;;;;29.76;34.33;100683.19;5009120;28;20030;-70
2022/07/21 05:56:39;;;;;;;7.43;4.85;;;;;;;29.76;34.21;100696.63;5007927;28;20036;-68
2022/07/21 05:59:04;;;;;;;5.60;4.68;;;;;;;29.76;34.31;100698.50;5007771;28;20056;-68
2022/07/21 06:01:30;;;;;;;6.90;5.25;;;;;;;29.76;33.87;100693.94;5005959;28;20044;-69
2022/07/21 06:03:55;;;;;;;7.00;4.53;;;;;;;29.76;33.93;100688.56;5007808;28;20079;-68
2022/07/21 06:06:23;;;;;;;5.60;4.72;;;;;;;29.77;34.38;100689.38;5005547;28;20390;-69
2022/07/21 06:08:48;;;;;;;6.00;4.85;;;;;;;29.77;34.16;100695.56;5010137;28;20105;-68
2022/07/21 06:11:17;;;;;;;7.72;4.50;;;;;;;29.78;34.42;100704.38;5009034;28;20025;-69
2022/07/21 06:13:42;;;;;;;7.20;4.63;;;;;;;29.77;34.45;100706.31;5008802;28;20041;-70
2022/07/21 06:16:08;;;;;;;6.68;4.55;;;;;;;29.79;34.08;100697.94;5009829;28;20022;-70
2022/07/21 06:18:34;;;;;;;7.32;4.82;;;;;;;29.77;34.17;100695.56;5008633;28;20034;-69
2022/07/21 06:21:00;;;;;;;7.88;4.63;;;;;;;29.79;34.11;100692.56;5007394;28;20393;-69
2022/07/21 06:23:26;;;;;;;5.05;4.65;;;;;;;29.80;34.29;100689.63;5004455;28;20104;-68
2022/07/21 06:25:52;;;;;;;5.47;4.78;;;;;;;29.79;34.56;100696.06;5005008;28;20553;-67
2022/07/21 06:28:18;;;;;;;8.80;5.45;;;;;;;29.76;34.43;100695.81;5003066;28;20030;-68
2022/07/21 06:30:44;;;;;;;6.45;4.82;;;;;;;29.71;34.29;100699.31;5005605;28;20033;-68
2022/07/21 06:33:10;;;;;;;5.10;4.60;;;;;;;29.67;34.57;100704.41;5008323;28;20053;-67
2022/07/21 06:35:35;;;;;;;7.70;4.65;;;;;;;29.63;34.45;100700.63;5006145;28;20030;-68
2022/07/21 06:38:01;;;;;;;6.78;4.70;;;;;;;29.57;34.88;100700.88;5008554;28;20162;-69
2022/07/21 06:40:27;;;;;;;6.40;5.60;;;;;;;29.54;35.16;100699.53;5007251;28;20041;-69
2022/07/21 06:42:52;;;;;;;11.00;5.97;;;;;;;29.50;35.24;100701.13;5008515;28;20030;-68
2022/07/21 06:45:18;;;;;;;8.30;4.85;;;;;;;29.54;35.08;100706.78;5009905;28;20069;-70
2022/07/21 06:47:43;;;;;;;7.70;4.97;;;;;;;29.54;35.38;100696.84;5009383;28;20033;-69
2022/07/21 06:50:10;;;;;;;8.30;5.07;;;;;;;29.56;35.73;100696.56;5009183;28;20085;-69
2022/07/21 06:52:36;;;;;;;11.85;5.50;;;;;;;29.56;35.91;100694.69;5009416;28;20029;-67
2022/07/21 06:55:04;;;;;;;13.70;5.65;;;;;;;29.56;35.81;100699.25;5001187;28;20061;-68
2022/07/21 06:57:30;;;;;;;7.70;4.90;;;;;;;29.55;35.73;100686.91;4990724;28;20038;-69
2022/07/21 06:59:55;;;;;;;14.13;5.03;;;;;;;29.55;35.62;100689.59;4991174;28;20556;-68
2022/07/21 07:02:20;;;;;;;11.32;5.03;;;;;;;29.55;35.14;100686.91;4984779;23;20067;-68
2022/07/21 07:04:46;;;;;;;6.88;4.70;;;;;;;29.52;35.01;100688.25;4964969;28;20394;-69
2022/07/21 07:07:11;;;;;;;5.85;4.65;;;;;;;29.51;35.47;100697.38;4963310;28;20388;-67
2022/07/21 07:09:37;;;;;;;9.40;4.75;;;;;;;29.53;35.88;100694.41;4967594;28;20022;-68
2022/07/21 07:12:04;;;;;;;9.40;4.45;;;;;;;29.53;36.17;100697.09;4965960;28;20037;-69
2022/07/21 07:14:30;;;;;;;8.65;4.80;;;;;;;29.54;35.61;100690.66;4964645;28;20033;-69
2022/07/21 07:16:56;;;;;;;9.70;5.22;;;;;;;29.55;36.12;100697.66;4964218;28;20431;-69
2022/07/21 07:19:22;;;;;;;12.95;4.43;;;;;;;29.55;35.58;100697.66;4968690;28;20041;-69
2022/07/21 07:21:47;;;;;;;8.15;4.95;;;;;;;29.55;35.86;100694.97;4969004;28;20031;-69
2022/07/21 07:24:12;;;;;;;15.27;5.20;;;;;;;29.53;35.48;100694.41;4969849;28;20027;-69
2022/07/21 07:26:38;;;;;;;10.18;4.47;;;;;;;29.54;36.05;100693.34;4968187;28;20350;-68
2022/07/21 07:29:03;;;;;;;10.35;5.00;;;;;;;29.55;36.01;100686.91;4968479;28;20014;-69
2022/07/21 07:31:29;;;;;;;7.65;4.40;;;;;;;29.54;35.46;100685.28;4969657;28;20422;-69
2022/07/21 07:33:57;;;;;;;8.90;5.03;;;;;;;29.55;35.33;100686.91;4969304;28;20834;-68
2022/07/21 07:36:23;;;;;;;5.78;4.93;;;;;;;29.56;35.72;100683.16;4969603;28;20155;-69
2022/07/21 07:38:49;;;;;;;5.47;4.57;;;;;;;29.56;35.39;100681.28;4965566;28;20031;-68
2022/07/21 07:41:14;;;;;;;5.38;3.92;;;;;;;29.57;35.63;100674.84;4964591;28;20030;-68
2022/07/21 07:43:40;;;;;;;9.52;5.22;;;;;;;29.59;35.71;100677.25;4968244;28;20031;-68
2022/07/21 07:46:07;;;;;;;10.93;5.50;;;;;;;29.59;35.32;100677.25;4966141;28;20035;-69
2022/07/21 07:48:34;;;;;;;10.77;7.35;;;;;;;29.60;35.53;100676.19;4957740;28;20034;-67
2022/07/21 07:50:59;;;;;;;9.30;6.38;;;;;;;29.60;35.67;100668.13;4965222;28;20050;-69
2022/07/21 07:53:25;;;;;;;9.77;6.28;;;;;;;29.62;35.58;100666.00;4963660;28;20034;-70
2022/07/21 07:55:50;;;;;;;9.75;7.45;;;;;;;29.63;35.67;100662.22;4964906;28;20030;-70
2022/07/21 07:58:16;;;;;;;9.82;7.45;;;;;;;29.64;35.34;100658.47;4965433;28;20136;-70
2022/07/21 08:00:41;;;;;;;10.57;8.05;;;;;;;29.64;35.19;100663.84;4966504;28;20162;-69
2022/07/21 08:03:07;;;;;;;10.60;8.43;;;;;;;29.65;35.21;100666.28;4958247;28;20519;-70
2022/07/21 08:05:32;;;;;;;17.55;10.13;;;;;;;29.65;35.20;100660.09;4964896;28;20030;-68
2022/07/21 08:07:59;;;;;;;11.15;10.00;;;;;;;29.66;35.68;100667.06;4964491;28;20027;-69
2022/07/21 08:10:24;;;;;;;17.48;11.35;;;;;;;29.66;35.34;100657.13;4968141;28;20039;-68
2022/07/21 08:12:50;;;;;;;13.23;10.10;;;;;;;29.68;35.30;100659.56;4967609;28;20027;-70
2022/07/21 08:15:15;;;;;;;15.00;10.35;;;;;;;29.68;36.00;100655.00;4966372;28;20078;-71
2022/07/21 08:17:41;;;;;;;16.63;10.73;;;;;;;29.69;36.32;100655.81;4968859;28;20030;-70
2022/07/21 08:20:07;;;;;;;19.92;12.70;;;;;;;29.71;36.33;100643.72;4972915;28;20438;-70
2022/07/21 08:22:33;;;;;;;21.15;13.85;;;;;;;29.72;36.32;100649.91;4968468;28;20034;-70
2022/07/21 08:24:58;;;;;;;16.92;13.55;;;;;;;29.74;35.83;100647.75;4969182;28;20038;-68
2022/07/21 08:27:23;;;;;;;20.73;13.60;;;;;;;29.73;35.86;100635.41;4965398;28;20198;-70
2022/07/21 08:29:49;;;;;;;15.35;12.52;;;;;;;29.72;35.17;100633.78;4971211;28;20027;-69
2022/07/21 08:32:17;;;;;;;17.48;13.30;;;;;;;29.74;34.88;100634.34;4969516;28;20031;-70
2022/07/21 08:34:44;;;;;;;15.48;13.05;;;;;;;29.75;34.03;100630.56;4972938;28;20033;-69
2022/07/21 08:37:09;;;;;;;16.83;12.90;;;;;;;29.77;33.73;100631.13;4972127;28;20310;-70
2022/07/21 08:39:35;;;;;;;20.63;13.68;;;;;;;29.79;33.51;100631.63;4971401;28;20534;-69
2022/07/21 08:42:01;;;;;;;16.20;13.75;;;;;;;29.80;33.56;100627.06;4972669;28;20070;-69
2022/07/21 08:44:26;;;;;;;19.45;14.80;;;;;;;29.82;33.22;100632.97;4971278;28;20051;-69
2022/07/21 08:46:52;;;;;;;19.17;14.45;;;;;;;29.83;33.40;100632.69;4972103;28;20035;-69
2022/07/21 08:49:22;;;;;;;17.75;14.88;;;;;;;29.86;33.07;100629.47;4971049;28;20089;-70
2022/07/21 08:51:48;;;;;;;19.67;13.90;;;;;;;29.86;33.06;100629.47;4971463;28;20030;-70
2022/07/21 08:54:14;;;;;;;18.10;12.38;;;;;;;29.85;33.03;100627.88;4969779;28;20479;-70
2022/07/21 08:56:39;;;;;;;18.08;12.15;;;;;;;29.88;33.06;100616.59;4971067;28;20031;-69
2022/07/21 08:59:05;;;;;;;15.98;12.77;;;;;;;29.91;32.71;100618.75;4971058;28;20082;-69
2022/07/21 09:01:32;;;;;;;21.33;16.63;;;;;;;29.94;32.31;100617.41;4971351;28;20130;-69
2022/07/21 09:04:21;;;;;;;19.38;17.35;;;;;;;29.92;32.20;100617.66;4966397;28;20022;-69
2022/07/21 09:07:01;;;;;;;24.70;20.20;;;;;;;29.92;32.46;100617.66;4965935;28;20049;-70
2022/07/21 09:09:29;;;;;;;23.85;19.35;;;;;;;29.96;32.42;100613.38;4963720;28;20062;-69
2022/07/21 09:11:55;;;;;;;28.15;21.05;;;;;;;29.98;32.88;100613.91;4968587;28;20453;-70
2022/07/21 09:14:23;;;;;;;28.55;25.50;;;;;;;30.00;32.22;100610.97;4967310;28;20034;-69
2022/07/21 09:16:51;;;;;;;31.20;25.55;;;;;;;30.00;32.89;100610.97;4965655;28;20027;-71
2022/07/21 09:19:26;;;;;;;36.50;29.20;;;;;;;30.01;32.74;100610.72;4963099;28;20034;-69
2022/07/21 09:21:54;;;;;;;33.65;29.02;;;;;;;29.99;32.94;100607.50;4966142;28;20363;-70
2022/07/21 09:24:29;;;;;;;48.58;42.00;;;;;;;30.01;32.58;100615.28;4966906;28;20441;-70
2022/07/21 09:27:00;;;;;;;54.88;48.92;;;;;;;30.04;32.56;100612.06;4964378;28;20038;-71
2022/07/21 09:29:26;;;;;;;56.40;50.28;;;;;;;30.05;32.36;100613.66;4968097;28;20026;-69
2022/07/21 09:31:51;;;;;;;59.78;48.30;;;;;;;30.07;32.52;100602.66;4971560;28;20049;-69
2022/07/21 09:34:19;;;;;;;63.65;51.47;;;;;;;30.09;32.78;100604.00;4968330;28;20113;-69
2022/07/21 09:36:57;;;;;;;58.65;48.90;;;;;;;30.13;32.66;100609.63;4970565;28;20059;-70
2022/07/21 09:39:54;;;;;;;57.95;50.40;;;;;;;30.09;32.31;100598.63;4969895;28;20467;-70
2022/07/21 09:42:21;;;;;;;71.15;61.70;;;;;;;30.14;32.22;100605.88;4966422;28;20035;-69
2022/07/21 09:44:52;;;;;;;97.07;85.85;;;;;;;30.20;32.02;100594.84;4968405;28;20400;-70
2022/07/21 09:47:19;;;;;;;91.47;81.82;;;;;;;30.24;32.06;100592.44;4968313;28;20039;-70
2022/07/21 09:49:45;;;;;;;91.78;81.95;;;;;;;30.23;31.75;100596.19;4971069;28;20379;-70
2022/07/21 09:52:20;;;;;;;86.32;75.15;;;;;;;30.24;32.28;100584.38;4971187;28;20038;-70
2022/07/21 09:54:46;;;;;;;76.13;67.93;;;;;;;30.32;31.70;100589.97;4969973;28;20031;-68
2022/07/21 09:57:12;;;;;;;76.35;68.22;;;;;;;30.35;32.04;100585.94;4971359;28;20062;-70
2022/07/21 09:59:39;;;;;;;71.35;63.55;;;;;;;30.36;31.89;100584.84;4970725;28;20403;-69
2022/07/21 10:02:05;;;;;;;59.35;52.60;;;;;;;30.36;31.70;100584.84;4970611;28;20570;-70
2022/07/21 10:04:33;;;;;;;54.08;48.05;;;;;;;30.39;31.87;100581.63;4970072;28;20019;-69
2022/07/21 10:07:00;;;;;;;43.03;38.53;;;;;;;30.47;31.88;100574.88;4970904;28;20550;-68
2022/07/21 10:09:26;;;;;;;42.72;38.22;;;;;;;30.48;31.64;100581.88;4969661;28;20396;-67
2022/07/21 10:11:51;;;;;;;41.45;37.03;;;;;;;30.43;32.37;100584.56;4971183;28;20027;-69
2022/07/21 10:14:17;;;;;;;33.58;29.52;;;;;;;30.47;32.00;100588.31;4970078;28;20027;-68
2022/07/21 10:16:42;;;;;;;27.35;24.05;;;;;;;30.54;31.22;100578.09;4969043;28;20073;-70
2022/07/21 10:19:31;;;;;;;24.52;21.92;;;;;;;30.53;31.13;100579.16;4967992;28;20042;-69
2022/07/21 10:22:08;;;;;;;25.77;22.92;;;;;;;30.51;31.11;100584.81;4968755;28;20037;-70
2022/07/21 10:24:33;;;;;;;23.95;20.40;;;;;;;30.51;30.98;100573.25;4958173;28;20307;-69
2022/07/21 10:27:06;;;;;;;24.45;21.88;;;;;;;30.47;31.51;100581.06;4969218;28;20360;-70
2022/07/21 10:29:47;;;;;;;32.30;29.00;;;;;;;30.45;31.27;100577.84;4968787;28;20463;-67
2022/07/21 10:32:15;;;;;;;35.70;30.73;;;;;;;30.54;31.50;100581.59;4969506;28;20977;-69
2022/07/21 10:34:40;;;;;;;37.05;31.08;;;;;;;30.55;31.51;100571.63;4969000;28;20038;-69
2022/07/21 10:37:06;;;;;;;34.35;30.75;;;;;;;30.55;31.39;100577.81;4966332;28;20474;-70
2022/07/21 10:39:33;;;;;;;34.70;28.60;;;;;;;30.53;31.58;100577.28;4968462;28;20026;-68
2022/07/21 10:42:00;;;;;;;33.08;29.48;;;;;;;30.51;31.05;100574.06;4970494;28;20039;-70
2022/07/21 10:44:30;;;;;;;28.70;25.75;;;;;;;30.54;30.60;100576.22;4969207;28;20101;-70
2022/07/21 10:47:23;;;;;;;24.90;22.23;;;;;;;30.62;30.01;100567.63;4966074;28;20035;-69
2022/07/21 10:49:48;;;;;;;25.50;22.85;;;;;;;30.63;30.21;100574.59;4963428;28;20039;-69
2022/07/21 10:52:39;;;;;;;24.60;20.20;;;;;;;30.62;29.89;100577.56;4964685;28;20042;-70
2022/07/21 10:55:13;;;;;;;34.08;27.33;;;;;;;30.66;30.03;100567.88;4965685;28;20343;-69
2022/07/21 10:57:43;;;;;;;28.92;26.02;;;;;;;30.77;29.41;100565.91;4969018;28;20039;-68
2022/07/21 11:00:21;;;;;;;30.08;26.88;;;;;;;30.82;29.09;100564.00;4969155;28;20027;-69
2022/07/21 11:02:49;;;;;;;31.35;24.85;;;;;;;30.86;28.85;100565.06;4968381;28;20066;-69
2022/07/21 11:05:15;;;;;;;29.60;23.52;;;;;;;30.88;28.81;100562.09;4963936;28;20556;-69
2022/07/21 11:08:10;;;;;;;26.70;22.63;;;;;;;30.93;28.55;100562.09;4962480;28;20035;-70
2022/07/21 11:10:37;;;;;;;29.42;23.88;;;;;;;30.93;28.61;100564.78;4965333;28;20031;-69
2022/07/21 11:13:03;;;;;;;26.70;23.73;;;;;;;30.89;28.78;100563.72;4969106;28;20181;-70
2022/07/21 11:15:55;;;;;;;25.20;22.20;;;;;;;30.87;28.52;100557.81;4964292;28;20110;-69
2022/07/21 11:18:24;;;;;;;23.90;21.42;;;;;;;30.91;28.77;100554.28;4959381;28;20042;-68
2022/07/21 11:21:10;;;;;;;23.70;20.83;;;;;;;30.96;28.47;100550.78;4965828;28;20487;-68